sensor_id;sensor_type;location;lat;lon;timestamp;P1;durP1;ratioP1;P2;durP2;ratioP2
82374;SDS011;72005;50.496;15.798;2024-03-02T00:00:07;48.55;;;23.95;;
82374;SDS011;72005;50.496;15.798;2024-03-02T00:03:00;51.08;;;26.70;;
82374;SDS011;72005;50.496;15.798;2024-03-02T00:05:26;55.17;;;26.48;;
82374;SDS011;72005;50.496;15.798;2024-03-02T00:07:55;59.15;;;28.83;;
82374;SDS011;72005;50.496;15.798;2024-03-02T00:10:24;48.03;;;26.25;;
82374;SDS011;72005;50.496;15.798;2024-03-02T00:12:57;53.58;;;27.30;;
82374;SDS011;72005;50.496;15.798;2024-03-02T00:18:11;45.67;;;24.40;;
82374;SDS011;72005;50.496;15.798;2024-03-02T00:20:38;56.83;;;28.52;;
82374;SDS011;72005;50.496;15.798;2024-03-02T00:23:07;55.28;;;27.08;;
82374;SDS011;72005;50.496;15.798;2024-03-02T00:25:36;62.00;;;31.13;;
82374;SDS011;72005;50.496;15.798;2024-03-02T00:28:25;63.63;;;30.38;;
82374;SDS011;72005;50.496;15.798;2024-03-02T00:31:13;67.43;;;33.20;;
82374;SDS011;72005;50.496;15.798;2024-03-02T00:33:46;58.65;;;30.23;;
82374;SDS011;72005;50.496;15.798;2024-03-02T00:36:16;53.70;;;26.15;;
82374;SDS011;72005;50.496;15.798;2024-03-02T00:38:50;54.90;;;28.55;;
82374;SDS011;72005;50.496;15.798;2024-03-02T00:44:04;71.10;;;31.85;;
82374;SDS011;72005;50.496;15.798;2024-03-02T00:49:05;61.37;;;31.50;;
82374;SDS011;72005;50.496;15.798;2024-03-02T00:51:37;57.47;;;29.10;;
82374;SDS011;72005;50.496;15.798;2024-03-02T00:54:04;68.65;;;33.03;;
82374;SDS011;72005;50.496;15.798;2024-03-02T00:56:32;61.35;;;29.90;;
82374;SDS011;72005;50.496;15.798;2024-03-02T00:58:58;69.93;;;31.83;;
82374;SDS011;72005;50.496;15.798;2024-03-02T01:01:24;67.03;;;31.15;;
82374;SDS011;72005;50.496;15.798;2024-03-02T01:03:49;66.07;;;32.88;;
82374;SDS011;72005;50.496;15.798;2024-03-02T01:06:15;64.40;;;30.80;;
82374;SDS011;72005;50.496;15.798;2024-03-02T01:08:42;60.67;;;31.17;;
82374;SDS011;72005;50.496;15.798;2024-03-02T01:11:08;61.60;;;30.30;;
82374;SDS011;72005;50.496;15.798;2024-03-02T01:13:34;65.60;;;32.38;;
82374;SDS011;72005;50.496;15.798;2024-03-02T01:15:59;62.88;;;30.75;;
82374;SDS011;72005;50.496;15.798;2024-03-02T01:18:26;69.88;;;34.55;;
82374;SDS011;72005;50.496;15.798;2024-03-02T01:20:51;68.45;;;33.88;;
82374;SDS011;72005;50.496;15.798;2024-03-02T01:23:18;66.82;;;31.58;;
82374;SDS011;72005;50.496;15.798;2024-03-02T01:25:45;66.88;;;33.13;;
82374;SDS011;72005;50.496;15.798;2024-03-02T01:28:12;66.70;;;33.78;;
82374;SDS011;72005;50.496;15.798;2024-03-02T01:30:38;65.65;;;30.10;;
82374;SDS011;72005;50.496;15.798;2024-03-02T01:33:04;66.82;;;32.20;;
82374;SDS011;72005;50.496;15.798;2024-03-02T01:35:31;63.30;;;32.00;;
82374;SDS011;72005;50.496;15.798;2024-03-02T01:37:57;64.80;;;31.83;;
82374;SDS011;72005;50.496;15.798;2024-03-02T01:40:22;71.25;;;33.20;;
82374;SDS011;72005;50.496;15.798;2024-03-02T01:42:52;63.50;;;31.13;;
82374;SDS011;72005;50.496;15.798;2024-03-02T01:45:23;57.60;;;28.85;;
82374;SDS011;72005;50.496;15.798;2024-03-02T01:47:49;59.72;;;30.25;;
82374;SDS011;72005;50.496;15.798;2024-03-02T01:50:16;60.30;;;31.48;;
82374;SDS011;72005;50.496;15.798;2024-03-02T01:55:15;59.92;;;29.88;;
82374;SDS011;72005;50.496;15.798;2024-03-02T01:57:41;60.00;;;31.42;;
82374;SDS011;72005;50.496;15.798;2024-03-02T02:00:07;64.38;;;31.15;;
82374;SDS011;72005;50.496;15.798;2024-03-02T02:02:33;60.40;;;27.58;;
82374;SDS011;72005;50.496;15.798;2024-03-02T02:04:58;59.10;;;28.92;;
82374;SDS011;72005;50.496;15.798;2024-03-02T02:07:24;49.70;;;25.75;;
82374;SDS011;72005;50.496;15.798;2024-03-02T02:09:50;58.00;;;29.58;;
82374;SDS011;72005;50.496;15.798;2024-03-02T02:12:16;71.30;;;33.25;;
82374;SDS011;72005;50.496;15.798;2024-03-02T02:14:48;60.85;;;31.27;;
82374;SDS011;72005;50.496;15.798;2024-03-02T02:17:16;59.35;;;29.58;;
82374;SDS011;72005;50.496;15.798;2024-03-02T02:19:42;57.92;;;30.23;;
82374;SDS011;72005;50.496;15.798;2024-03-02T02:22:08;54.33;;;27.85;;
82374;SDS011;72005;50.496;15.798;2024-03-02T02:24:35;53.83;;;29.27;;
82374;SDS011;72005;50.496;15.798;2024-03-02T02:27:00;63.95;;;31.73;;
82374;SDS011;72005;50.496;15.798;2024-03-02T02:29:26;62.75;;;27.38;;
82374;SDS011;72005;50.496;15.798;2024-03-02T02:31:52;55.00;;;28.95;;
82374;SDS011;72005;50.496;15.798;2024-03-02T02:34:18;65.70;;;30.83;;
82374;SDS011;72005;50.496;15.798;2024-03-02T02:36:43;62.42;;;31.83;;
82374;SDS011;72005;50.496;15.798;2024-03-02T02:39:13;52.70;;;26.80;;
82374;SDS011;72005;50.496;15.798;2024-03-02T02:41:42;52.65;;;28.05;;
82374;SDS011;72005;50.496;15.798;2024-03-02T02:44:07;55.35;;;27.55;;
82374;SDS011;72005;50.496;15.798;2024-03-02T02:46:34;51.55;;;27.67;;
82374;SDS011;72005;50.496;15.798;2024-03-02T02:48:59;52.65;;;26.92;;
82374;SDS011;72005;50.496;15.798;2024-03-02T02:51:25;57.15;;;29.02;;
82374;SDS011;72005;50.496;15.798;2024-03-02T02:53:51;54.67;;;26.52;;
82374;SDS011;72005;50.496;15.798;2024-03-02T02:56:17;57.00;;;29.60;;
82374;SDS011;72005;50.496;15.798;2024-03-02T02:58:42;58.30;;;30.45;;
82374;SDS011;72005;50.496;15.798;2024-03-02T03:01:08;59.15;;;30.73;;
82374;SDS011;72005;50.496;15.798;2024-03-02T03:03:34;53.63;;;26.02;;
82374;SDS011;72005;50.496;15.798;2024-03-02T03:06:00;51.33;;;27.67;;
82374;SDS011;72005;50.496;15.798;2024-03-02T03:08:25;49.90;;;26.48;;
82374;SDS011;72005;50.496;15.798;2024-03-02T03:10:51;54.63;;;28.60;;
82374;SDS011;72005;50.496;15.798;2024-03-02T03:13:19;63.75;;;30.30;;
82374;SDS011;72005;50.496;15.798;2024-03-02T03:15:45;47.58;;;25.58;;
82374;SDS011;72005;50.496;15.798;2024-03-02T03:18:11;50.75;;;23.60;;
82374;SDS011;72005;50.496;15.798;2024-03-02T03:20:37;58.65;;;29.70;;
82374;SDS011;72005;50.496;15.798;2024-03-02T03:23:02;47.00;;;25.40;;
82374;SDS011;72005;50.496;15.798;2024-03-02T03:25:29;47.67;;;24.02;;
82374;SDS011;72005;50.496;15.798;2024-03-02T03:27:55;57.50;;;30.08;;
82374;SDS011;72005;50.496;15.798;2024-03-02T03:30:21;56.72;;;28.30;;
82374;SDS011;72005;50.496;15.798;2024-03-02T03:32:47;51.17;;;27.25;;
82374;SDS011;72005;50.496;15.798;2024-03-02T03:35:14;53.53;;;28.33;;
82374;SDS011;72005;50.496;15.798;2024-03-02T03:37:40;54.42;;;29.33;;
82374;SDS011;72005;50.496;15.798;2024-03-02T03:40:06;60.55;;;30.40;;
82374;SDS011;72005;50.496;15.798;2024-03-02T03:42:35;46.50;;;26.60;;
82374;SDS011;72005;50.496;15.798;2024-03-02T03:45:02;61.13;;;30.33;;
82374;SDS011;72005;50.496;15.798;2024-03-02T03:47:28;63.75;;;31.25;;
82374;SDS011;72005;50.496;15.798;2024-03-02T03:49:54;54.33;;;28.25;;
82374;SDS011;72005;50.496;15.798;2024-03-02T03:52:20;61.20;;;31.17;;
82374;SDS011;72005;50.496;15.798;2024-03-02T03:54:46;44.35;;;24.42;;
82374;SDS011;72005;50.496;15.798;2024-03-02T03:57:12;61.92;;;29.20;;
82374;SDS011;72005;50.496;15.798;2024-03-02T03:59:38;42.60;;;24.33;;
82374;SDS011;72005;50.496;15.798;2024-03-02T04:02:03;57.05;;;29.13;;
82374;SDS011;72005;50.496;15.798;2024-03-02T04:04:29;42.67;;;23.80;;
82374;SDS011;72005;50.496;15.798;2024-03-02T04:06:55;52.47;;;28.67;;
82374;SDS011;72005;50.496;15.798;2024-03-02T04:09:21;49.90;;;27.85;;
82374;SDS011;72005;50.496;15.798;2024-03-02T04:11:47;52.42;;;27.50;;
82374;SDS011;72005;50.496;15.798;2024-03-02T04:14:12;56.83;;;27.20;;
82374;SDS011;72005;50.496;15.798;2024-03-02T04:16:38;58.03;;;29.90;;
82374;SDS011;72005;50.496;15.798;2024-03-02T04:19:04;57.63;;;30.08;;
82374;SDS011;72005;50.496;15.798;2024-03-02T04:21:30;49.53;;;26.38;;
82374;SDS011;72005;50.496;15.798;2024-03-02T04:23:56;45.83;;;25.85;;
82374;SDS011;72005;50.496;15.798;2024-03-02T04:26:25;53.53;;;27.85;;
82374;SDS011;72005;50.496;15.798;2024-03-02T04:28:51;50.45;;;26.23;;
82374;SDS011;72005;50.496;15.798;2024-03-02T04:31:18;41.20;;;22.35;;
82374;SDS011;72005;50.496;15.798;2024-03-02T04:33:44;42.53;;;23.45;;
82374;SDS011;72005;50.496;15.798;2024-03-02T04:36:09;50.35;;;26.35;;
82374;SDS011;72005;50.496;15.798;2024-03-02T04:38:35;43.83;;;23.88;;
82374;SDS011;72005;50.496;15.798;2024-03-02T04:41:02;41.78;;;22.23;;
82374;SDS011;72005;50.496;15.798;2024-03-02T04:43:27;49.30;;;26.88;;
82374;SDS011;72005;50.496;15.798;2024-03-02T04:45:53;45.58;;;26.10;;
82374;SDS011;72005;50.496;15.798;2024-03-02T04:48:19;38.60;;;21.83;;
82374;SDS011;72005;50.496;15.798;2024-03-02T04:50:45;47.65;;;25.77;;
82374;SDS011;72005;50.496;15.798;2024-03-02T04:53:10;44.08;;;24.35;;
82374;SDS011;72005;50.496;15.798;2024-03-02T04:55:36;43.72;;;24.35;;
82374;SDS011;72005;50.496;15.798;2024-03-02T04:58:05;53.38;;;27.63;;
82374;SDS011;72005;50.496;15.798;2024-03-02T05:00:32;36.33;;;21.10;;
82374;SDS011;72005;50.496;15.798;2024-03-02T05:03:00;47.90;;;24.95;;
82374;SDS011;72005;50.496;15.798;2024-03-02T05:05:27;40.35;;;22.85;;
82374;SDS011;72005;50.496;15.798;2024-03-02T05:07:52;37.22;;;22.42;;
82374;SDS011;72005;50.496;15.798;2024-03-02T05:10:18;52.38;;;27.83;;
82374;SDS011;72005;50.496;15.798;2024-03-02T05:12:44;45.45;;;23.50;;
82374;SDS011;72005;50.496;15.798;2024-03-02T05:15:10;47.70;;;26.33;;
82374;SDS011;72005;50.496;15.798;2024-03-02T05:17:37;39.30;;;21.05;;
82374;SDS011;72005;50.496;15.798;2024-03-02T05:20:04;46.53;;;25.63;;
82374;SDS011;72005;50.496;15.798;2024-03-02T05:22:31;40.33;;;22.95;;
82374;SDS011;72005;50.496;15.798;2024-03-02T05:24:57;42.63;;;22.67;;
82374;SDS011;72005;50.496;15.798;2024-03-02T05:27:24;36.03;;;21.55;;
82374;SDS011;72005;50.496;15.798;2024-03-02T05:29:50;43.28;;;24.20;;
82374;SDS011;72005;50.496;15.798;2024-03-02T05:32:15;44.95;;;25.23;;
82374;SDS011;72005;50.496;15.798;2024-03-02T05:34:41;42.25;;;23.08;;
82374;SDS011;72005;50.496;15.798;2024-03-02T05:37:07;46.05;;;24.00;;
82374;SDS011;72005;50.496;15.798;2024-03-02T05:39:32;44.33;;;25.73;;
82374;SDS011;72005;50.496;15.798;2024-03-02T05:41:58;45.63;;;25.65;;
82374;SDS011;72005;50.496;15.798;2024-03-02T05:44:24;39.17;;;22.88;;
82374;SDS011;72005;50.496;15.798;2024-03-02T05:46:49;45.65;;;24.58;;
82374;SDS011;72005;50.496;15.798;2024-03-02T05:49:15;35.17;;;21.13;;
82374;SDS011;72005;50.496;15.798;2024-03-02T05:51:41;37.40;;;21.63;;
82374;SDS011;72005;50.496;15.798;2024-03-02T05:54:07;49.65;;;27.58;;
82374;SDS011;72005;50.496;15.798;2024-03-02T05:56:33;38.45;;;23.52;;
82374;SDS011;72005;50.496;15.798;2024-03-02T05:58:58;43.70;;;23.48;;
82374;SDS011;72005;50.496;15.798;2024-03-02T06:01:44;48.42;;;24.42;;
82374;SDS011;72005;50.496;15.798;2024-03-02T06:04:12;44.47;;;24.70;;
82374;SDS011;72005;50.496;15.798;2024-03-02T06:06:41;39.10;;;20.63;;
82374;SDS011;72005;50.496;15.798;2024-03-02T06:09:07;44.90;;;23.25;;
82374;SDS011;72005;50.496;15.798;2024-03-02T06:11:39;40.53;;;22.92;;
82374;SDS011;72005;50.496;15.798;2024-03-02T06:14:06;43.42;;;22.95;;
82374;SDS011;72005;50.496;15.798;2024-03-02T06:16:33;45.33;;;25.15;;
82374;SDS011;72005;50.496;15.798;2024-03-02T06:19:00;58.22;;;30.30;;
82374;SDS011;72005;50.496;15.798;2024-03-02T06:21:26;43.30;;;24.20;;
82374;SDS011;72005;50.496;15.798;2024-03-02T06:23:53;47.65;;;25.65;;
82374;SDS011;72005;50.496;15.798;2024-03-02T06:26:19;43.47;;;24.38;;
82374;SDS011;72005;50.496;15.798;2024-03-02T06:28:45;41.63;;;23.80;;
82374;SDS011;72005;50.496;15.798;2024-03-02T06:31:11;44.38;;;23.95;;
82374;SDS011;72005;50.496;15.798;2024-03-02T06:33:37;47.65;;;26.58;;
82374;SDS011;72005;50.496;15.798;2024-03-02T06:36:03;43.53;;;24.30;;
82374;SDS011;72005;50.496;15.798;2024-03-02T06:38:29;48.38;;;25.33;;
82374;SDS011;72005;50.496;15.798;2024-03-02T06:40:57;43.88;;;24.70;;
82374;SDS011;72005;50.496;15.798;2024-03-02T06:43:23;48.25;;;25.83;;
82374;SDS011;72005;50.496;15.798;2024-03-02T06:45:50;39.15;;;21.75;;
82374;SDS011;72005;50.496;15.798;2024-03-02T06:48:16;45.92;;;24.25;;
82374;SDS011;72005;50.496;15.798;2024-03-02T06:50:48;46.88;;;26.45;;
82374;SDS011;72005;50.496;15.798;2024-03-02T06:53:15;36.35;;;22.02;;
82374;SDS011;72005;50.496;15.798;2024-03-02T06:55:44;50.10;;;26.63;;
82374;SDS011;72005;50.496;15.798;2024-03-02T06:58:11;41.40;;;23.80;;
82374;SDS011;72005;50.496;15.798;2024-03-02T07:00:37;43.08;;;25.38;;
82374;SDS011;72005;50.496;15.798;2024-03-02T07:03:03;46.63;;;26.67;;
82374;SDS011;72005;50.496;15.798;2024-03-02T07:05:29;39.88;;;22.63;;
82374;SDS011;72005;50.496;15.798;2024-03-02T07:07:55;37.10;;;21.70;;
82374;SDS011;72005;50.496;15.798;2024-03-02T07:10:21;36.28;;;22.23;;
82374;SDS011;72005;50.496;15.798;2024-03-02T07:12:47;41.33;;;22.17;;
82374;SDS011;72005;50.496;15.798;2024-03-02T07:15:12;40.55;;;23.20;;
82374;SDS011;72005;50.496;15.798;2024-03-02T07:17:55;38.10;;;23.80;;
82374;SDS011;72005;50.496;15.798;2024-03-02T07:20:21;44.83;;;25.42;;
82374;SDS011;72005;50.496;15.798;2024-03-02T07:22:47;40.80;;;23.15;;
82374;SDS011;72005;50.496;15.798;2024-03-02T07:25:13;35.88;;;23.38;;
82374;SDS011;72005;50.496;15.798;2024-03-02T07:27:39;40.60;;;24.17;;
82374;SDS011;72005;50.496;15.798;2024-03-02T07:30:06;47.92;;;25.38;;
82374;SDS011;72005;50.496;15.798;2024-03-02T07:32:32;39.05;;;22.45;;
82374;SDS011;72005;50.496;15.798;2024-03-02T07:34:58;44.65;;;25.63;;
82374;SDS011;72005;50.496;15.798;2024-03-02T07:37:24;39.15;;;23.00;;
82374;SDS011;72005;50.496;15.798;2024-03-02T07:39:50;41.67;;;23.67;;
82374;SDS011;72005;50.496;15.798;2024-03-02T07:42:16;41.67;;;23.77;;
82374;SDS011;72005;50.496;15.798;2024-03-02T07:44:43;42.05;;;24.48;;
82374;SDS011;72005;50.496;15.798;2024-03-02T07:47:10;38.45;;;21.90;;
82374;SDS011;72005;50.496;15.798;2024-03-02T07:49:36;46.97;;;23.77;;
82374;SDS011;72005;50.496;15.798;2024-03-02T07:52:02;39.97;;;23.40;;
82374;SDS011;72005;50.496;15.798;2024-03-02T07:54:29;43.58;;;23.48;;
82374;SDS011;72005;50.496;15.798;2024-03-02T07:57:01;39.03;;;22.35;;
82374;SDS011;72005;50.496;15.798;2024-03-02T07:59:27;41.10;;;23.05;;
82374;SDS011;72005;50.496;15.798;2024-03-02T08:01:53;38.03;;;22.10;;
82374;SDS011;72005;50.496;15.798;2024-03-02T08:04:20;40.08;;;22.75;;
82374;SDS011;72005;50.496;15.798;2024-03-02T08:06:46;43.45;;;22.92;;
82374;SDS011;72005;50.496;15.798;2024-03-02T08:09:12;35.95;;;21.83;;
82374;SDS011;72005;50.496;15.798;2024-03-02T08:11:38;41.63;;;23.13;;
82374;SDS011;72005;50.496;15.798;2024-03-02T08:14:04;43.25;;;23.90;;
82374;SDS011;72005;50.496;15.798;2024-03-02T08:16:29;40.85;;;21.27;;
82374;SDS011;72005;50.496;15.798;2024-03-02T08:18:55;34.53;;;19.67;;
82374;SDS011;72005;50.496;15.798;2024-03-02T08:21:23;39.72;;;21.15;;
82374;SDS011;72005;50.496;15.798;2024-03-02T08:23:49;42.67;;;22.15;;
82374;SDS011;72005;50.496;15.798;2024-03-02T08:26:16;38.95;;;21.55;;
82374;SDS011;72005;50.496;15.798;2024-03-02T08:28:41;42.00;;;23.00;;
82374;SDS011;72005;50.496;15.798;2024-03-02T08:31:07;37.65;;;20.70;;
82374;SDS011;72005;50.496;15.798;2024-03-02T08:33:34;36.05;;;19.95;;
82374;SDS011;72005;50.496;15.798;2024-03-02T08:36:00;37.33;;;20.55;;
82374;SDS011;72005;50.496;15.798;2024-03-02T08:38:26;35.55;;;19.80;;
82374;SDS011;72005;50.496;15.798;2024-03-02T08:40:53;39.53;;;20.92;;
82374;SDS011;72005;50.496;15.798;2024-03-02T08:43:19;39.35;;;21.75;;
82374;SDS011;72005;50.496;15.798;2024-03-02T08:45:45;36.65;;;20.33;;
82374;SDS011;72005;50.496;15.798;2024-03-02T08:48:12;36.13;;;20.05;;
82374;SDS011;72005;50.496;15.798;2024-03-02T08:50:38;43.15;;;22.25;;
82374;SDS011;72005;50.496;15.798;2024-03-02T08:53:04;41.78;;;21.52;;
82374;SDS011;72005;50.496;15.798;2024-03-02T08:55:30;38.83;;;20.48;;
82374;SDS011;72005;50.496;15.798;2024-03-02T08:57:56;37.25;;;20.25;;
82374;SDS011;72005;50.496;15.798;2024-03-02T09:00:22;35.95;;;19.75;;
82374;SDS011;72005;50.496;15.798;2024-03-02T09:02:48;36.40;;;20.92;;
82374;SDS011;72005;50.496;15.798;2024-03-02T09:05:15;34.38;;;19.15;;
82374;SDS011;72005;50.496;15.798;2024-03-02T09:07:41;43.15;;;21.77;;
82374;SDS011;72005;50.496;15.798;2024-03-02T09:10:07;38.95;;;20.38;;
82374;SDS011;72005;50.496;15.798;2024-03-02T09:12:33;39.13;;;22.20;;
82374;SDS011;72005;50.496;15.798;2024-03-02T09:15:00;39.60;;;23.80;;
82374;SDS011;72005;50.496;15.798;2024-03-02T09:17:27;45.83;;;24.30;;
82374;SDS011;72005;50.496;15.798;2024-03-02T09:19:53;46.17;;;23.60;;
82374;SDS011;72005;50.496;15.798;2024-03-02T09:22:19;39.10;;;23.13;;
82374;SDS011;72005;50.496;15.798;2024-03-02T09:24:45;47.95;;;24.30;;
82374;SDS011;72005;50.496;15.798;2024-03-02T09:27:11;35.95;;;19.58;;
82374;SDS011;72005;50.496;15.798;2024-03-02T09:29:37;42.80;;;23.30;;
82374;SDS011;72005;50.496;15.798;2024-03-02T09:32:03;41.85;;;22.98;;
82374;SDS011;72005;50.496;15.798;2024-03-02T09:34:31;37.10;;;22.10;;
82374;SDS011;72005;50.496;15.798;2024-03-02T09:36:57;36.40;;;22.20;;
82374;SDS011;72005;50.496;15.798;2024-03-02T09:39:23;40.70;;;23.05;;
82374;SDS011;72005;50.496;15.798;2024-03-02T09:41:50;41.85;;;25.17;;
82374;SDS011;72005;50.496;15.798;2024-03-02T09:44:16;39.65;;;23.27;;
82374;SDS011;72005;50.496;15.798;2024-03-02T09:46:42;38.13;;;21.85;;
82374;SDS011;72005;50.496;15.798;2024-03-02T09:49:10;39.72;;;23.95;;
82374;SDS011;72005;50.496;15.798;2024-03-02T09:51:39;33.28;;;20.25;;
82374;SDS011;72005;50.496;15.798;2024-03-02T09:54:07;43.13;;;24.30;;
82374;SDS011;72005;50.496;15.798;2024-03-02T09:56:33;77.57;;;37.60;;
82374;SDS011;72005;50.496;15.798;2024-03-02T09:58:59;70.85;;;35.25;;
82374;SDS011;72005;50.496;15.798;2024-03-02T10:01:25;40.28;;;23.33;;
82374;SDS011;72005;50.496;15.798;2024-03-02T10:03:50;108.22;;;58.92;;
82374;SDS011;72005;50.496;15.798;2024-03-02T10:08:46;40.65;;;22.05;;
82374;SDS011;72005;50.496;15.798;2024-03-02T10:11:26;42.13;;;24.05;;
82374;SDS011;72005;50.496;15.798;2024-03-02T10:14:12;46.30;;;24.60;;
82374;SDS011;72005;50.496;15.798;2024-03-02T10:16:42;40.03;;;22.10;;
82374;SDS011;72005;50.496;15.798;2024-03-02T10:21:45;43.17;;;24.52;;
82374;SDS011;72005;50.496;15.798;2024-03-02T10:24:15;40.85;;;23.88;;
82374;SDS011;72005;50.496;15.798;2024-03-02T10:26:41;40.38;;;22.83;;
82374;SDS011;72005;50.496;15.798;2024-03-02T10:29:08;41.05;;;22.90;;
82374;SDS011;72005;50.496;15.798;2024-03-02T10:31:41;38.53;;;23.17;;
82374;SDS011;72005;50.496;15.798;2024-03-02T10:34:09;33.58;;;21.05;;
82374;SDS011;72005;50.496;15.798;2024-03-02T10:36:36;32.25;;;20.00;;
82374;SDS011;72005;50.496;15.798;2024-03-02T10:39:06;32.17;;;19.63;;
82374;SDS011;72005;50.496;15.798;2024-03-02T10:41:33;33.85;;;19.75;;
82374;SDS011;72005;50.496;15.798;2024-03-02T10:44:06;37.20;;;20.58;;
82374;SDS011;72005;50.496;15.798;2024-03-02T10:46:34;35.10;;;20.70;;
82374;SDS011;72005;50.496;15.798;2024-03-02T10:49:02;39.47;;;22.80;;
82374;SDS011;72005;50.496;15.798;2024-03-02T10:51:30;36.42;;;21.40;;
82374;SDS011;72005;50.496;15.798;2024-03-02T10:54:02;34.33;;;20.50;;
82374;SDS011;72005;50.496;15.798;2024-03-02T10:56:41;69.57;;;35.53;;
82374;SDS011;72005;50.496;15.798;2024-03-02T10:59:16;47.15;;;26.67;;
82374;SDS011;72005;50.496;15.798;2024-03-02T11:01:50;32.45;;;18.95;;
82374;SDS011;72005;50.496;15.798;2024-03-02T11:04:17;30.95;;;18.25;;
82374;SDS011;72005;50.496;15.798;2024-03-02T11:06:46;31.58;;;19.08;;
82374;SDS011;72005;50.496;15.798;2024-03-02T11:09:14;32.25;;;18.77;;
82374;SDS011;72005;50.496;15.798;2024-03-02T11:11:43;32.20;;;18.70;;
82374;SDS011;72005;50.496;15.798;2024-03-02T11:14:10;27.15;;;16.63;;
82374;SDS011;72005;50.496;15.798;2024-03-02T11:16:39;29.35;;;17.27;;
82374;SDS011;72005;50.496;15.798;2024-03-02T11:19:07;30.73;;;18.20;;
82374;SDS011;72005;50.496;15.798;2024-03-02T11:21:36;27.38;;;16.98;;
82374;SDS011;72005;50.496;15.798;2024-03-02T11:24:45;27.73;;;17.33;;
82374;SDS011;72005;50.496;15.798;2024-03-02T11:26:58;28.63;;;15.90;;
82374;SDS011;72005;50.496;15.798;2024-03-02T11:32:00;28.38;;;14.93;;
82374;SDS011;72005;50.496;15.798;2024-03-02T11:34:31;28.80;;;16.98;;
82374;SDS011;72005;50.496;15.798;2024-03-02T11:36:57;34.30;;;19.08;;
82374;SDS011;72005;50.496;15.798;2024-03-02T11:39:27;29.15;;;17.13;;
82374;SDS011;72005;50.496;15.798;2024-03-02T11:41:53;35.42;;;20.92;;
82374;SDS011;72005;50.496;15.798;2024-03-02T11:44:19;24.65;;;14.95;;
82374;SDS011;72005;50.496;15.798;2024-03-02T11:46:46;25.40;;;14.80;;
82374;SDS011;72005;50.496;15.798;2024-03-02T11:49:38;26.50;;;15.98;;
82374;SDS011;72005;50.496;15.798;2024-03-02T11:52:09;30.58;;;17.02;;
82374;SDS011;72005;50.496;15.798;2024-03-02T11:54:37;30.90;;;16.55;;
82374;SDS011;72005;50.496;15.798;2024-03-02T11:57:11;28.92;;;15.18;;
82374;SDS011;72005;50.496;15.798;2024-03-02T11:59:37;26.77;;;14.25;;
82374;SDS011;72005;50.496;15.798;2024-03-02T12:02:03;21.88;;;14.43;;
82374;SDS011;72005;50.496;15.798;2024-03-02T12:04:29;25.77;;;17.02;;
82374;SDS011;72005;50.496;15.798;2024-03-02T12:06:59;28.73;;;17.20;;
82374;SDS011;72005;50.496;15.798;2024-03-02T12:09:26;25.05;;;15.10;;
82374;SDS011;72005;50.496;15.798;2024-03-02T12:14:29;22.05;;;13.93;;
82374;SDS011;72005;50.496;15.798;2024-03-02T12:16:55;25.60;;;14.90;;
82374;SDS011;72005;50.496;15.798;2024-03-02T12:19:24;36.72;;;16.40;;
82374;SDS011;72005;50.496;15.798;2024-03-02T12:21:51;26.33;;;14.73;;
82374;SDS011;72005;50.496;15.798;2024-03-02T12:24:18;23.88;;;14.70;;
82374;SDS011;72005;50.496;15.798;2024-03-02T12:26:44;21.80;;;14.50;;
82374;SDS011;72005;50.496;15.798;2024-03-02T12:29:10;23.00;;;13.98;;
82374;SDS011;72005;50.496;15.798;2024-03-02T12:31:36;26.50;;;15.35;;
82374;SDS011;72005;50.496;15.798;2024-03-02T12:34:03;29.33;;;15.32;;
82374;SDS011;72005;50.496;15.798;2024-03-02T12:36:29;29.08;;;14.73;;
82374;SDS011;72005;50.496;15.798;2024-03-02T12:38:55;27.52;;;16.75;;
82374;SDS011;72005;50.496;15.798;2024-03-02T12:41:20;48.75;;;28.98;;
82374;SDS011;72005;50.496;15.798;2024-03-02T12:43:46;31.77;;;20.77;;
82374;SDS011;72005;50.496;15.798;2024-03-02T12:46:12;26.25;;;15.70;;
82374;SDS011;72005;50.496;15.798;2024-03-02T12:48:38;24.00;;;15.35;;
82374;SDS011;72005;50.496;15.798;2024-03-02T12:51:06;22.98;;;14.05;;
82374;SDS011;72005;50.496;15.798;2024-03-02T12:53:32;26.05;;;14.90;;
82374;SDS011;72005;50.496;15.798;2024-03-02T12:55:58;28.17;;;15.85;;
82374;SDS011;72005;50.496;15.798;2024-03-02T12:58:24;32.58;;;15.73;;
82374;SDS011;72005;50.496;15.798;2024-03-02T13:00:50;80.93;;;43.83;;
82374;SDS011;72005;50.496;15.798;2024-03-02T13:03:17;31.75;;;19.15;;
82374;SDS011;72005;50.496;15.798;2024-03-02T13:05:49;27.80;;;16.67;;
82374;SDS011;72005;50.496;15.798;2024-03-02T13:08:18;36.67;;;21.38;;
82374;SDS011;72005;50.496;15.798;2024-03-02T13:10:44;34.50;;;19.75;;
82374;SDS011;72005;50.496;15.798;2024-03-02T13:13:11;43.65;;;26.85;;
82374;SDS011;72005;50.496;15.798;2024-03-02T13:15:37;24.02;;;15.32;;
82374;SDS011;72005;50.496;15.798;2024-03-02T13:18:03;25.67;;;15.77;;
82374;SDS011;72005;50.496;15.798;2024-03-02T13:20:32;27.55;;;16.45;;
82374;SDS011;72005;50.496;15.798;2024-03-02T13:22:58;33.08;;;18.27;;
82374;SDS011;72005;50.496;15.798;2024-03-02T13:25:24;27.23;;;17.00;;
82374;SDS011;72005;50.496;15.798;2024-03-02T13:27:50;66.75;;;43.97;;
82374;SDS011;72005;50.496;15.798;2024-03-02T13:30:16;30.58;;;18.48;;
82374;SDS011;72005;50.496;15.798;2024-03-02T13:32:42;26.33;;;15.43;;
82374;SDS011;72005;50.496;15.798;2024-03-02T13:35:07;26.15;;;17.35;;
82374;SDS011;72005;50.496;15.798;2024-03-02T13:37:36;37.75;;;20.48;;
82374;SDS011;72005;50.496;15.798;2024-03-02T13:40:02;31.15;;;17.05;;
82374;SDS011;72005;50.496;15.798;2024-03-02T13:42:30;25.85;;;15.02;;
82374;SDS011;72005;50.496;15.798;2024-03-02T13:44:56;28.75;;;18.58;;
82374;SDS011;72005;50.496;15.798;2024-03-02T13:47:22;28.65;;;17.40;;
82374;SDS011;72005;50.496;15.798;2024-03-02T13:49:48;30.10;;;17.58;;
82374;SDS011;72005;50.496;15.798;2024-03-02T13:52:14;27.40;;;17.20;;
82374;SDS011;72005;50.496;15.798;2024-03-02T13:54:45;21.42;;;14.20;;
82374;SDS011;72005;50.496;15.798;2024-03-02T13:57:12;26.75;;;15.60;;
82374;SDS011;72005;50.496;15.798;2024-03-02T13:59:38;26.73;;;16.20;;
82374;SDS011;72005;50.496;15.798;2024-03-02T14:02:07;25.92;;;16.50;;
82374;SDS011;72005;50.496;15.798;2024-03-02T14:04:34;23.05;;;13.85;;
82374;SDS011;72005;50.496;15.798;2024-03-02T14:07:00;23.85;;;14.15;;
82374;SDS011;72005;50.496;15.798;2024-03-02T14:09:27;26.70;;;15.48;;
82374;SDS011;72005;50.496;15.798;2024-03-02T14:11:53;23.98;;;13.40;;
82374;SDS011;72005;50.496;15.798;2024-03-02T14:14:19;31.05;;;17.73;;
82374;SDS011;72005;50.496;15.798;2024-03-02T14:16:45;31.13;;;16.85;;
82374;SDS011;72005;50.496;15.798;2024-03-02T14:19:11;28.15;;;16.17;;
82374;SDS011;72005;50.496;15.798;2024-03-02T14:21:38;30.30;;;16.75;;
82374;SDS011;72005;50.496;15.798;2024-03-02T14:24:04;18.88;;;12.68;;
82374;SDS011;72005;50.496;15.798;2024-03-02T14:26:30;17.75;;;12.43;;
82374;SDS011;72005;50.496;15.798;2024-03-02T14:28:55;24.98;;;14.88;;